Le Ponant — FGZZ — position and weather

sailwx.info

Track history (hours):
 
Tides and Currents Weather Stations Pressure Air Temp Water Temp Dewpoint Dewpoint Depression Visibility Wind Speed Wind Dir Waves Ship Positions

Le Ponant

Operator: Compangy des Iles du Ponant

Last reported at 2018-Aug-15 02:43 UTC. Time now 2018-Aug-16 20:18 UTC.
Position N 37°56' E 015°25'.

Length 89 m; draft 4.2 m.

Type: Passenger vessel. MMSI: 227186000.

Date/timePositionNaut miles runAvg speedWind from/ knotsBaromVisibWave heightAir tempDewpointWater temp
2018-Aug-15 02:43N 37°56' E 015°25'7 6.8
2018-Aug-15 01:45N 38°02' E 015°29'2 7.1
2018-Aug-15 01:26N 38°04' E 015°31'3 7.1
2018-Aug-15 01:00N 38°06' E 015°33'5 9.7
2018-Aug-15 00:30N 38°11' E 015°35'711.1
2018-Aug-14 23:50N 38°17' E 015°40'411.0
2018-Aug-14 23:30N 38°20' E 015°38'610.9
2018-Aug-14 23:00N 38°24' E 015°33'26 2.4
2018-Aug-14 12:10N 38°32' E 015°02'111 6.0
2018-Aug-13 17:44N 40°20' E 014°34'311.2
2018-Aug-13 17:29N 40°23' E 014°33'511.4
2018-Aug-13 17:00N 40°28' E 014°32'611.3
2018-Aug-13 16:31N 40°34' E 014°30'3 6.3
2018-Aug-13 16:00N 40°37' E 014°30'3 0.2
2018-Aug-12 19:04N 40°36' E 014°35'110.1
2018-Aug-12 19:00N 40°36' E 014°34'510.5
2018-Aug-12 18:31N 40°34' E 014°28'510.6
2018-Aug-12 18:01N 40°32' E 014°21'510.7
2018-Aug-12 17:31N 40°31' E 014°14'510.5
2018-Aug-12 17:01N 40°32' E 014°08'510.5
2018-Aug-12 16:31N 40°33' E 014°01'510.8
2018-Aug-12 16:01N 40°35' E 013°54'510.9
2018-Aug-12 15:31N 40°37' E 013°47'510.9
2018-Aug-12 15:00N 40°39' E 013°41'510.9
2018-Aug-12 14:30N 40°41' E 013°34'711.2
2018-Aug-12 13:55N 40°43' E 013°26'811.1
2018-Aug-12 13:12N 40°46' E 013°16'811.2
2018-Aug-12 12:28N 40°49' E 013°06'510.7
2018-Aug-12 12:00N 40°52' E 013°01'2 0.3
2018-Aug-12 05:51N 40°54' E 012°59'  
2018-Aug-10 01:15N 43°14' E 009°33'410.4
2018-Aug-10 00:49N 43°15' E 009°28'511.0
2018-Aug-10 00:25N 43°17' E 009°22'511.3
2018-Aug-10 00:00N 43°18' E 009°16'811.8
2018-Aug-09 23:21N 43°20' E 009°05'412.0
2018-Aug-09 22:59N 43°21' E 008°59'3512.7
2018-Aug-09 20:14N 43°29' E 008°13'311.9
2018-Aug-09 20:00N 43°30' E 008°09'611.5
2018-Aug-09 19:30N 43°31' E 008°01'2611.2
2018-Aug-09 17:12N 43°38' E 007°27'311.2
2018-Aug-09 16:57N 43°39' E 007°23'2 0.2
2018-Aug-09 04:20N 43°37' E 007°22'  
Track history (hours):
 
Tides and Currents Weather Stations Pressure Air Temp Water Temp Dewpoint Dewpoint Depression Visibility Wind Speed Wind Dir Waves Ship Positions

Le Ponant

Operator: Compangy des Iles du Ponant

Last reported at 2018-Aug-15 02:43 UTC. Time now 2018-Aug-16 20:18 UTC.
Position N 37°56' E 015°25'.

Length 89 m; draft 4.2 m.

Type: Passenger vessel. MMSI: 227186000.

Date/timePositionNaut miles runAvg speedWind from/ knotsBaromVisibWave heightAir tempDewpointWater temp
2018-Aug-15 02:43N 37°56' E 015°25'7 6.8
2018-Aug-15 01:45N 38°02' E 015°29'2 7.1
2018-Aug-15 01:26N 38°04' E 015°31'3 7.1
2018-Aug-15 01:00N 38°06' E 015°33'5 9.7
2018-Aug-15 00:30N 38°11' E 015°35'711.1
2018-Aug-14 23:50N 38°17' E 015°40'411.0
2018-Aug-14 23:30N 38°20' E 015°38'610.9
2018-Aug-14 23:00N 38°24' E 015°33'26 2.4
2018-Aug-14 12:10N 38°32' E 015°02'111 6.0
2018-Aug-13 17:44N 40°20' E 014°34'311.2
2018-Aug-13 17:29N 40°23' E 014°33'511.4
2018-Aug-13 17:00N 40°28' E 014°32'611.3
2018-Aug-13 16:31N 40°34' E 014°30'3 6.3
2018-Aug-13 16:00N 40°37' E 014°30'3 0.2
2018-Aug-12 19:04N 40°36' E 014°35'110.1
2018-Aug-12 19:00N 40°36' E 014°34'510.5
2018-Aug-12 18:31N 40°34' E 014°28'510.6
2018-Aug-12 18:01N 40°32' E 014°21'510.7
2018-Aug-12 17:31N 40°31' E 014°14'510.5
2018-Aug-12 17:01N 40°32' E 014°08'510.5
2018-Aug-12 16:31N 40°33' E 014°01'510.8
2018-Aug-12 16:01N 40°35' E 013°54'510.9
2018-Aug-12 15:31N 40°37' E 013°47'510.9
2018-Aug-12 15:00N 40°39' E 013°41'510.9
2018-Aug-12 14:30N 40°41' E 013°34'711.2
2018-Aug-12 13:55N 40°43' E 013°26'811.1
2018-Aug-12 13:12N 40°46' E 013°16'811.2
2018-Aug-12 12:28N 40°49' E 013°06'510.7
2018-Aug-12 12:00N 40°52' E 013°01'2 0.3
2018-Aug-12 05:51N 40°54' E 012°59'  
2018-Aug-10 01:15N 43°14' E 009°33'410.4
2018-Aug-10 00:49N 43°15' E 009°28'511.0
2018-Aug-10 00:25N 43°17' E 009°22'511.3
2018-Aug-10 00:00N 43°18' E 009°16'811.8
2018-Aug-09 23:21N 43°20' E 009°05'412.0
2018-Aug-09 22:59N 43°21' E 008°59'3512.7
2018-Aug-09 20:14N 43°29' E 008°13'311.9
2018-Aug-09 20:00N 43°30' E 008°09'611.5
2018-Aug-09 19:30N 43°31' E 008°01'2611.2
2018-Aug-09 17:12N 43°38' E 007°27'311.2
2018-Aug-09 16:57N 43°39' E 007°23'2 0.2
2018-Aug-09 04:20N 43°37' E 007°22'  

Dump ship's entire track history